sensor_id;sensor_type;location;lat;lon;timestamp;pressure;altitude;pressure_sealevel;temperature;humidity
60307;BME280;46155;52.364;6.580;2022-07-25T03:00:30;100732.78;;;20.37;75.45
60307;BME280;46155;52.364;6.580;2022-07-25T03:02:55;100743.50;;;20.42;75.50
60307;BME280;46155;52.364;6.580;2022-07-25T03:05:21;100730.13;;;20.39;75.47
60307;BME280;46155;52.364;6.580;2022-07-25T03:07:46;100732.78;;;20.39;75.49
60307;BME280;46155;52.364;6.580;2022-07-25T03:10:13;100728.28;;;20.36;76.13
60307;BME280;46155;52.364;6.580;2022-07-25T03:12:39;100731.78;;;20.34;75.82
60307;BME280;46155;52.364;6.580;2022-07-25T03:15:06;100715.69;;;20.27;75.97
60307;BME280;46155;52.364;6.580;2022-07-25T03:17:31;100729.94;;;20.29;75.99
60307;BME280;46155;52.364;6.580;2022-07-25T03:19:56;100721.09;;;20.32;75.87
60307;BME280;46155;52.364;6.580;2022-07-25T03:22:23;100724.63;;;20.31;75.78
60307;BME280;46155;52.364;6.580;2022-07-25T03:24:48;100722.84;;;20.30;76.06
60307;BME280;46155;52.364;6.580;2022-07-25T03:27:13;100716.56;;;20.26;75.72
60307;BME280;46155;52.364;6.580;2022-07-25T03:29:39;100710.31;;;20.24;76.09
60307;BME280;46155;52.364;6.580;2022-07-25T03:32:05;100712.03;;;20.22;76.17
60307;BME280;46155;52.364;6.580;2022-07-25T03:34:31;100708.56;;;20.26;75.91
60307;BME280;46155;52.364;6.580;2022-07-25T03:36:56;100699.66;;;20.24;76.08
60307;BME280;46155;52.364;6.580;2022-07-25T03:39:21;100700.44;;;20.20;76.31
60307;BME280;46155;52.364;6.580;2022-07-25T03:41:49;100705.88;;;20.26;76.37
60307;BME280;46155;52.364;6.580;2022-07-25T03:44:15;100709.41;;;20.25;76.13
60307;BME280;46155;52.364;6.580;2022-07-25T03:46:40;100699.59;;;20.23;75.90
60307;BME280;46155;52.364;6.580;2022-07-25T03:49:05;100705.84;;;20.23;76.58
60307;BME280;46155;52.364;6.580;2022-07-25T03:51:30;100712.91;;;20.23;76.44
60307;BME280;46155;52.364;6.580;2022-07-25T03:53:56;100702.25;;;20.23;76.63
60307;BME280;46155;52.364;6.580;2022-07-25T03:56:41;100700.50;;;20.23;76.33
60307;BME280;46155;52.364;6.580;2022-07-25T03:59:07;100690.69;;;20.22;76.83
60307;BME280;46155;52.364;6.580;2022-07-25T04:01:33;100692.47;;;20.22;76.69
60307;BME280;46155;52.364;6.580;2022-07-25T04:03:59;100684.47;;;20.20;76.59
60307;BME280;46155;52.364;6.580;2022-07-25T04:06:25;100686.22;;;20.21;76.79
60307;BME280;46155;52.364;6.580;2022-07-25T04:08:51;100689.78;;;20.20;76.99
60307;BME280;46155;52.364;6.580;2022-07-25T04:11:17;100694.16;;;20.18;77.44
60307;BME280;46155;52.364;6.580;2022-07-25T04:13:42;100679.03;;;20.17;77.21
60307;BME280;46155;52.364;6.580;2022-07-25T04:16:08;100681.78;;;20.20;76.77
60307;BME280;46155;52.364;6.580;2022-07-25T04:18:34;100678.25;;;20.23;77.12
60307;BME280;46155;52.364;6.580;2022-07-25T04:20:59;100680.09;;;20.25;77.20
60307;BME280;46155;52.364;6.580;2022-07-25T04:23:24;100676.56;;;20.26;77.49
60307;BME280;46155;52.364;6.580;2022-07-25T04:25:50;100676.66;;;20.33;77.48
60307;BME280;46155;52.364;6.580;2022-07-25T04:28:15;100679.41;;;20.36;76.71
60307;BME280;46155;52.364;6.580;2022-07-25T04:30:40;100667.00;;;20.38;77.08
60307;BME280;46155;52.364;6.580;2022-07-25T04:33:09;100682.22;;;20.43;76.85
60307;BME280;46155;52.364;6.580;2022-07-25T04:35:35;100677.00;;;20.51;76.54
60307;BME280;46155;52.364;6.580;2022-07-25T04:38:00;100665.47;;;20.52;76.65
60307;BME280;46155;52.364;6.580;2022-07-25T04:40:25;100672.63;;;20.53;76.98
60307;BME280;46155;52.364;6.580;2022-07-25T04:42:51;100665.56;;;20.57;76.36
60307;BME280;46155;52.364;6.580;2022-07-25T04:45:16;100660.31;;;20.61;76.53
60307;BME280;46155;52.364;6.580;2022-07-25T04:47:42;100661.25;;;20.65;76.16
60307;BME280;46155;52.364;6.580;2022-07-25T04:50:08;100661.41;;;20.70;76.73
60307;BME280;46155;52.364;6.580;2022-07-25T04:52:33;100658.78;;;20.74;76.47
60307;BME280;46155;52.364;6.580;2022-07-25T04:54:59;100656.13;;;20.74;76.04
60307;BME280;46155;52.364;6.580;2022-07-25T04:57:24;100655.38;;;20.83;75.99
60307;BME280;46155;52.364;6.580;2022-07-25T04:59:49;100657.22;;;20.87;75.88
60307;BME280;46155;52.364;6.580;2022-07-25T05:02:14;100654.63;;;20.92;75.21
60307;BME280;46155;52.364;6.580;2022-07-25T05:04:40;100653.78;;;20.94;75.72
60307;BME280;46155;52.364;6.580;2022-07-25T05:07:05;100638.63;;;20.93;75.60
60307;BME280;46155;52.364;6.580;2022-07-25T05:09:30;100644.06;;;20.98;75.35
60307;BME280;46155;52.364;6.580;2022-07-25T05:11:55;100642.31;;;21.00;75.12
60307;BME280;46155;52.364;6.580;2022-07-25T05:14:21;100641.41;;;21.00;75.05
60307;BME280;46155;52.364;6.580;2022-07-25T05:16:46;100646.84;;;21.06;75.02
60307;BME280;46155;52.364;6.580;2022-07-25T05:19:11;100637.84;;;21.01;74.73
60307;BME280;46155;52.364;6.580;2022-07-25T05:21:37;100634.38;;;21.06;74.93
60307;BME280;46155;52.364;6.580;2022-07-25T05:24:03;100622.03;;;21.13;75.63
60307;BME280;46155;52.364;6.580;2022-07-25T05:26:28;100636.47;;;21.27;75.58
60307;BME280;46155;52.364;6.580;2022-07-25T05:28:54;100638.38;;;21.38;75.59
60307;BME280;46155;52.364;6.580;2022-07-25T05:31:19;100636.72;;;21.46;74.89
60307;BME280;46155;52.364;6.580;2022-07-25T05:33:45;100636.94;;;21.58;75.42
60307;BME280;46155;52.364;6.580;2022-07-25T05:36:10;100640.63;;;21.68;75.45
60307;BME280;46155;52.364;6.580;2022-07-25T05:38:35;100629.97;;;21.73;75.16
60307;BME280;46155;52.364;6.580;2022-07-25T05:41:01;100635.47;;;21.85;75.13
60307;BME280;46155;52.364;6.580;2022-07-25T05:43:26;100623.94;;;21.88;73.85
60307;BME280;46155;52.364;6.580;2022-07-25T05:45:51;100629.34;;;21.92;71.92
60307;BME280;46155;52.364;6.580;2022-07-25T05:48:17;100624.88;;;21.94;73.32
60307;BME280;46155;52.364;6.580;2022-07-25T05:50:42;100624.09;;;22.01;73.42
60307;BME280;46155;52.364;6.580;2022-07-25T05:53:07;100628.56;;;22.06;73.12
60307;BME280;46155;52.364;6.580;2022-07-25T05:55:33;100625.03;;;22.07;72.64
60307;BME280;46155;52.364;6.580;2022-07-25T05:57:58;100625.06;;;22.10;73.97
60307;BME280;46155;52.364;6.580;2022-07-25T06:00:24;100620.69;;;22.16;72.83
60307;BME280;46155;52.364;6.580;2022-07-25T06:02:49;100611.13;;;22.39;73.07
60307;BME280;46155;52.364;6.580;2022-07-25T06:05:15;100604.25;;;22.68;70.22
60307;BME280;46155;52.364;6.580;2022-07-25T06:07:40;100595.66;;;23.13;69.58
60307;BME280;46155;52.364;6.580;2022-07-25T06:10:06;100604.66;;;23.24;67.26
60307;BME280;46155;52.364;6.580;2022-07-25T06:12:32;100615.38;;;23.30;66.89
60307;BME280;46155;52.364;6.580;2022-07-25T06:14:58;100619.88;;;23.33;66.04
60307;BME280;46155;52.364;6.580;2022-07-25T06:17:23;100611.91;;;23.50;66.16
60307;BME280;46155;52.364;6.580;2022-07-25T06:19:49;100609.31;;;23.71;66.31
60307;BME280;46155;52.364;6.580;2022-07-25T06:22:14;100607.66;;;23.87;64.24
60307;BME280;46155;52.364;6.580;2022-07-25T06:24:39;100597.84;;;23.99;63.75
60307;BME280;46155;52.364;6.580;2022-07-25T06:27:06;100605.00;;;24.17;62.00
60307;BME280;46155;52.364;6.580;2022-07-25T06:29:31;100615.78;;;24.45;62.86
60307;BME280;46155;52.364;6.580;2022-07-25T06:31:56;100613.13;;;24.57;61.93
60307;BME280;46155;52.364;6.580;2022-07-25T06:34:22;100616.69;;;24.54;62.31
60307;BME280;46155;52.364;6.580;2022-07-25T06:36:47;100617.59;;;24.46;62.50
60307;BME280;46155;52.364;6.580;2022-07-25T06:39:12;100618.44;;;24.24;62.74
60307;BME280;46155;52.364;6.580;2022-07-25T06:41:37;100616.66;;;24.22;64.19
60307;BME280;46155;52.364;6.580;2022-07-25T06:44:03;100615.75;;;24.32;62.33
60307;BME280;46155;52.364;6.580;2022-07-25T06:46:28;100616.69;;;24.37;63.50
60307;BME280;46155;52.364;6.580;2022-07-25T06:48:56;100616.69;;;24.59;61.61
60307;BME280;46155;52.364;6.580;2022-07-25T06:51:22;100602.41;;;24.79;61.28
60307;BME280;46155;52.364;6.580;2022-07-25T06:53:47;100611.31;;;25.08;60.64
60307;BME280;46155;52.364;6.580;2022-07-25T06:56:13;100611.25;;;25.32;60.24
60307;BME280;46155;52.364;6.580;2022-07-25T06:58:38;100610.34;;;25.47;59.42
60307;BME280;46155;52.364;6.580;2022-07-25T07:01:03;100617.44;;;25.60;58.49
60307;BME280;46155;52.364;6.580;2022-07-25T07:03:28;100603.97;;;25.68;59.00
60307;BME280;46155;52.364;6.580;2022-07-25T07:05:54;100612.88;;;25.82;57.67
60307;BME280;46155;52.364;6.580;2022-07-25T07:08:19;100610.09;;;25.96;57.97
60307;BME280;46155;52.364;6.580;2022-07-25T07:10:45;100611.81;;;26.12;56.39
60307;BME280;46155;52.364;6.580;2022-07-25T07:13:13;100609.06;;;26.25;55.61
60307;BME280;46155;52.364;6.580;2022-07-25T07:15:44;100603.59;;;26.36;56.24
60307;BME280;46155;52.364;6.580;2022-07-25T07:18:10;100606.16;;;26.53;54.67
60307;BME280;46155;52.364;6.580;2022-07-25T07:20:35;100598.94;;;26.55;54.85
60307;BME280;46155;52.364;6.580;2022-07-25T07:23:01;100602.47;;;26.63;55.04
60307;BME280;46155;52.364;6.580;2022-07-25T07:25:26;100594.34;;;26.75;54.93
60307;BME280;46155;52.364;6.580;2022-07-25T07:27:52;100590.47;;;27.03;55.48
60307;BME280;46155;52.364;6.580;2022-07-25T07:30:17;100594.03;;;27.05;54.05
60307;BME280;46155;52.364;6.580;2022-07-25T07:32:43;100595.16;;;26.80;53.89
60307;BME280;46155;52.364;6.580;2022-07-25T07:35:09;100588.22;;;26.52;54.99
60307;BME280;46155;52.364;6.580;2022-07-25T07:37:36;100590.28;;;26.12;54.83
60307;BME280;46155;52.364;6.580;2022-07-25T07:40:02;100579.69;;;25.85;56.57
60307;BME280;46155;52.364;6.580;2022-07-25T07:42:39;100577.13;;;25.65;57.58
60307;BME280;46155;52.364;6.580;2022-07-25T07:45:19;100600.34;;;25.76;58.08
60307;BME280;46155;52.364;6.580;2022-07-25T07:47:46;100603.00;;;25.83;59.37
60307;BME280;46155;52.364;6.580;2022-07-25T07:50:14;100596.66;;;25.98;59.44
60307;BME280;46155;52.364;6.580;2022-07-25T07:52:40;100584.88;;;26.22;57.24
60307;BME280;46155;52.364;6.580;2022-07-25T07:55:06;100597.31;;;26.35;56.68
60307;BME280;46155;52.364;6.580;2022-07-25T07:57:50;100602.78;;;26.26;56.37
60307;BME280;46155;52.364;6.580;2022-07-25T08:00:16;100583.19;;;26.04;56.78
60307;BME280;46155;52.364;6.580;2022-07-25T08:02:46;100598.47;;;25.92;57.10
60307;BME280;46155;52.364;6.580;2022-07-25T08:05:13;100587.78;;;25.80;57.45
60307;BME280;46155;52.364;6.580;2022-07-25T08:07:44;100587.84;;;25.68;58.37
60307;BME280;46155;52.364;6.580;2022-07-25T08:10:09;100581.59;;;25.64;59.98
60307;BME280;46155;52.364;6.580;2022-07-25T08:12:39;100586.06;;;25.67;58.88
60307;BME280;46155;52.364;6.580;2022-07-25T08:15:05;100575.34;;;25.62;58.70
60307;BME280;46155;52.364;6.580;2022-07-25T08:17:30;100597.72;;;25.61;58.41
60307;BME280;46155;52.364;6.580;2022-07-25T08:19:56;100599.53;;;25.62;58.70
60307;BME280;46155;52.364;6.580;2022-07-25T08:22:21;100613.78;;;25.78;59.15
60307;BME280;46155;52.364;6.580;2022-07-25T08:24:46;100611.06;;;25.83;57.33
60307;BME280;46155;52.364;6.580;2022-07-25T08:27:11;100619.06;;;26.01;55.93
60307;BME280;46155;52.364;6.580;2022-07-25T08:29:37;100615.41;;;26.15;55.48
60307;BME280;46155;52.364;6.580;2022-07-25T08:32:02;100611.00;;;26.03;55.90
60307;BME280;46155;52.364;6.580;2022-07-25T08:34:27;100619.97;;;25.91;56.24
60307;BME280;46155;52.364;6.580;2022-07-25T08:36:53;100609.28;;;25.82;55.23
60307;BME280;46155;52.364;6.580;2022-07-25T08:39:18;100612.00;;;25.72;54.46
60307;BME280;46155;52.364;6.580;2022-07-25T08:41:44;100614.75;;;25.61;54.00
60307;BME280;46155;52.364;6.580;2022-07-25T08:44:10;100613.03;;;25.42;53.81
60307;BME280;46155;52.364;6.580;2022-07-25T08:46:39;100619.31;;;25.38;55.97
60307;BME280;46155;52.364;6.580;2022-07-25T08:49:05;100617.53;;;25.35;55.99
60307;BME280;46155;52.364;6.580;2022-07-25T08:51:32;100626.47;;;25.47;56.89
60307;BME280;46155;52.364;6.580;2022-07-25T08:53:58;100615.69;;;25.53;56.17
60307;BME280;46155;52.364;6.580;2022-07-25T08:56:23;100622.81;;;25.60;54.52
60307;BME280;46155;52.364;6.580;2022-07-25T08:58:48;100612.97;;;25.60;53.08
60307;BME280;46155;52.364;6.580;2022-07-25T09:01:15;100619.22;;;25.61;52.68
60307;BME280;46155;52.364;6.580;2022-07-25T09:03:41;100606.69;;;25.57;52.45
60307;BME280;46155;52.364;6.580;2022-07-25T09:06:18;100588.84;;;25.31;51.79
60307;BME280;46155;52.364;6.580;2022-07-25T09:08:54;100599.59;;;25.31;53.17
60307;BME280;46155;52.364;6.580;2022-07-25T09:11:36;100599.63;;;25.28;55.51
60307;BME280;46155;52.364;6.580;2022-07-25T09:16:38;100617.53;;;25.24;54.62
60307;BME280;46155;52.364;6.580;2022-07-25T09:19:15;100613.97;;;25.24;56.05
60307;BME280;46155;52.364;6.580;2022-07-25T09:21:42;100619.34;;;25.36;55.48
60307;BME280;46155;52.364;6.580;2022-07-25T09:24:16;100625.50;;;25.58;53.97
60307;BME280;46155;52.364;6.580;2022-07-25T09:26:47;100627.19;;;25.84;55.93
60307;BME280;46155;52.364;6.580;2022-07-25T09:29:18;100619.03;;;26.07;54.57
60307;BME280;46155;52.364;6.580;2022-07-25T09:31:43;100629.59;;;26.38;52.88
60307;BME280;46155;52.364;6.580;2022-07-25T09:34:10;100616.81;;;26.65;51.49
60307;BME280;46155;52.364;6.580;2022-07-25T09:36:37;100619.50;;;26.67;48.50
60307;BME280;46155;52.364;6.580;2022-07-25T09:39:04;100618.59;;;26.66;48.49
60307;BME280;46155;52.364;6.580;2022-07-25T09:43:58;100636.34;;;26.92;48.97
60307;BME280;46155;52.364;6.580;2022-07-25T09:46:29;100622.69;;;27.15;48.92
60307;BME280;46155;52.364;6.580;2022-07-25T09:48:56;100612.56;;;27.34;48.13
60307;BME280;46155;52.364;6.580;2022-07-25T09:51:25;100628.59;;;27.49;48.21
60307;BME280;46155;52.364;6.580;2022-07-25T09:53:51;100634.00;;;27.48;45.01
60307;BME280;46155;52.364;6.580;2022-07-25T09:56:16;100624.34;;;27.25;45.45
60307;BME280;46155;52.364;6.580;2022-07-25T09:58:42;100628.19;;;27.01;47.57
60307;BME280;46155;52.364;6.580;2022-07-25T10:01:07;100638.06;;;26.99;46.72
60307;BME280;46155;52.364;6.580;2022-07-25T10:03:38;100639.13;;;26.86;46.55
60307;BME280;46155;52.364;6.580;2022-07-25T10:06:29;100637.41;;;26.77;46.91
60307;BME280;46155;52.364;6.580;2022-07-25T10:08:58;100645.53;;;26.69;46.92
60307;BME280;46155;52.364;6.580;2022-07-25T10:11:25;100646.44;;;26.63;45.88
60307;BME280;46155;52.364;6.580;2022-07-25T10:13:52;100637.50;;;26.61;46.80
60307;BME280;46155;52.364;6.580;2022-07-25T10:16:20;100656.28;;;26.66;46.92
60307;BME280;46155;52.364;6.580;2022-07-25T10:18:53;100652.78;;;26.55;48.55
60307;BME280;46155;52.364;6.580;2022-07-25T10:21:20;100650.16;;;26.49;49.79
60307;BME280;46155;52.364;6.580;2022-07-25T10:24:06;100655.56;;;26.47;50.93
60307;BME280;46155;52.364;6.580;2022-07-25T10:26:33;100655.59;;;26.38;50.87
60307;BME280;46155;52.364;6.580;2022-07-25T10:28:59;100655.69;;;26.27;51.75
60307;BME280;46155;52.364;6.580;2022-07-25T10:31:37;100662.00;;;26.17;51.60
60307;BME280;46155;52.364;6.580;2022-07-25T10:34:09;100657.56;;;26.14;51.09
60307;BME280;46155;52.364;6.580;2022-07-25T10:36:46;100660.19;;;26.22;51.29
60307;BME280;46155;52.364;6.580;2022-07-25T10:39:14;100665.53;;;26.28;50.77
60307;BME280;46155;52.364;6.580;2022-07-25T10:41:41;100671.75;;;26.36;52.02
60307;BME280;46155;52.364;6.580;2022-07-25T10:44:12;100675.25;;;26.52;52.45
60307;BME280;46155;52.364;6.580;2022-07-25T10:46:38;100670.56;;;26.84;51.12
60307;BME280;46155;52.364;6.580;2022-07-25T10:49:05;100656.91;;;27.05;52.39
60307;BME280;46155;52.364;6.580;2022-07-25T10:51:33;100663.91;;;27.25;49.54
60307;BME280;46155;52.364;6.580;2022-07-25T10:53:59;100656.66;;;27.27;49.41
60307;BME280;46155;52.364;6.580;2022-07-25T10:56:35;100658.50;;;27.22;49.81
60307;BME280;46155;52.364;6.580;2022-07-25T10:59:00;100668.34;;;27.26;49.17
60307;BME280;46155;52.364;6.580;2022-07-25T11:01:33;100660.25;;;27.26;50.09
60307;BME280;46155;52.364;6.580;2022-07-25T11:04:03;100668.34;;;27.26;50.09
60307;BME280;46155;52.364;6.580;2022-07-25T11:06:35;100661.16;;;27.28;50.62
60307;BME280;46155;52.364;6.580;2022-07-25T11:09:23;100668.53;;;27.12;50.28
60307;BME280;46155;52.364;6.580;2022-07-25T11:11:50;100673.09;;;26.99;49.27
60307;BME280;46155;52.364;6.580;2022-07-25T11:14:20;100676.84;;;26.84;49.25
60307;BME280;46155;52.364;6.580;2022-07-25T11:16:49;100693.03;;;26.81;51.19
60307;BME280;46155;52.364;6.580;2022-07-25T11:19:24;100688.59;;;26.72;51.15
60307;BME280;46155;52.364;6.580;2022-07-25T11:21:59;100686.78;;;26.76;51.49
60307;BME280;46155;52.364;6.580;2022-07-25T11:24:41;100686.63;;;26.93;51.18
60307;BME280;46155;52.364;6.580;2022-07-25T11:27:10;100678.44;;;27.07;51.32
60307;BME280;46155;52.364;6.580;2022-07-25T11:29:36;100677.50;;;27.09;52.20
60307;BME280;46155;52.364;6.580;2022-07-25T11:32:06;100674.75;;;27.15;52.30
60307;BME280;46155;52.364;6.580;2022-07-25T11:34:37;100678.31;;;27.21;51.25
60307;BME280;46155;52.364;6.580;2022-07-25T11:37:04;100681.03;;;27.14;50.75
60307;BME280;46155;52.364;6.580;2022-07-25T11:39:32;100674.88;;;27.02;51.17
60307;BME280;46155;52.364;6.580;2022-07-25T11:42:04;100683.94;;;26.91;51.83
60307;BME280;46155;52.364;6.580;2022-07-25T11:47:00;100674.19;;;26.81;53.66
60307;BME280;46155;52.364;6.580;2022-07-25T11:49:25;100684.00;;;26.88;53.58
60307;BME280;46155;52.364;6.580;2022-07-25T11:51:51;100672.56;;;26.51;50.67
60307;BME280;46155;52.364;6.580;2022-07-25T11:54:16;100699.53;;;26.44;51.74
60307;BME280;46155;52.364;6.580;2022-07-25T11:56:41;100690.63;;;26.35;48.37
60307;BME280;46155;52.364;6.580;2022-07-25T11:59:09;100690.69;;;26.21;48.83
60307;BME280;46155;52.364;6.580;2022-07-25T12:01:39;100680.91;;;26.09;49.04
60307;BME280;46155;52.364;6.580;2022-07-25T12:04:16;100686.28;;;25.98;50.60
60307;BME280;46155;52.364;6.580;2022-07-25T12:06:45;100690.81;;;25.93;50.87
60307;BME280;46155;52.364;6.580;2022-07-25T12:09:12;100699.78;;;25.89;51.75
60307;BME280;46155;52.364;6.580;2022-07-25T12:11:38;100698.88;;;25.91;51.49
60307;BME280;46155;52.364;6.580;2022-07-25T12:14:04;100697.06;;;25.93;51.54
60307;BME280;46155;52.364;6.580;2022-07-25T12:16:31;100699.75;;;26.07;51.83
60307;BME280;46155;52.364;6.580;2022-07-25T12:18:56;100697.91;;;26.09;52.46
60307;BME280;46155;52.364;6.580;2022-07-25T12:21:22;100704.13;;;26.24;52.12
60307;BME280;46155;52.364;6.580;2022-07-25T12:23:47;100707.75;;;26.20;51.58
60307;BME280;46155;52.364;6.580;2022-07-25T12:26:12;100704.19;;;26.16;52.23
60307;BME280;46155;52.364;6.580;2022-07-25T12:28:38;100704.22;;;26.11;52.56
60307;BME280;46155;52.364;6.580;2022-07-25T12:31:04;100703.34;;;25.94;53.28
60307;BME280;46155;52.364;6.580;2022-07-25T12:33:30;100710.53;;;25.83;53.16
60307;BME280;46155;52.364;6.580;2022-07-25T12:35:57;100710.59;;;25.76;54.16
60307;BME280;46155;52.364;6.580;2022-07-25T12:38:22;100715.97;;;25.64;54.94
60307;BME280;46155;52.364;6.580;2022-07-25T12:40:47;100710.59;;;25.64;54.61
60307;BME280;46155;52.364;6.580;2022-07-25T12:43:13;100723.19;;;25.59;55.76
60307;BME280;46155;52.364;6.580;2022-07-25T12:45:39;100728.56;;;25.60;56.49
60307;BME280;46155;52.364;6.580;2022-07-25T12:48:04;100733.88;;;25.71;56.79
60307;BME280;46155;52.364;6.580;2022-07-25T12:50:30;100739.28;;;25.74;56.11
60307;BME280;46155;52.364;6.580;2022-07-25T12:52:55;100733.00;;;25.74;55.65
60307;BME280;46155;52.364;6.580;2022-07-25T12:55:21;100736.59;;;25.65;53.92
60307;BME280;46155;52.364;6.580;2022-07-25T12:57:46;100738.41;;;25.58;54.30
60307;BME280;46155;52.364;6.580;2022-07-25T13:00:16;100741.97;;;25.56;55.25
60307;BME280;46155;52.364;6.580;2022-07-25T13:02:42;100750.06;;;25.50;54.50
60307;BME280;46155;52.364;6.580;2022-07-25T13:05:08;100742.94;;;25.39;53.98
60307;BME280;46155;52.364;6.580;2022-07-25T13:07:34;100751.88;;;25.29;55.21
60307;BME280;46155;52.364;6.580;2022-07-25T13:10:00;100753.66;;;25.21;55.38
60307;BME280;46155;52.364;6.580;2022-07-25T13:12:25;100753.63;;;25.15;52.79
60307;BME280;46155;52.364;6.580;2022-07-25T13:14:51;100753.66;;;25.12;54.13
60307;BME280;46155;52.364;6.580;2022-07-25T13:17:17;100754.56;;;25.12;53.29
60307;BME280;46155;52.364;6.580;2022-07-25T13:19:42;100739.34;;;25.23;52.20
60307;BME280;46155;52.364;6.580;2022-07-25T13:22:07;100751.88;;;25.37;51.09
60307;BME280;46155;52.364;6.580;2022-07-25T13:24:33;100752.75;;;25.48;51.58
60307;BME280;46155;52.364;6.580;2022-07-25T13:27:01;100756.34;;;25.53;52.23
60307;BME280;46155;52.364;6.580;2022-07-25T13:29:27;100753.66;;;25.41;51.01
60307;BME280;46155;52.364;6.580;2022-07-25T13:31:52;100763.50;;;25.28;50.88
60307;BME280;46155;52.364;6.580;2022-07-25T13:34:17;100765.28;;;25.17;51.58
60307;BME280;46155;52.364;6.580;2022-07-25T13:36:42;100764.38;;;25.16;52.76
60307;BME280;46155;52.364;6.580;2022-07-25T13:39:08;100767.06;;;25.13;52.61
60307;BME280;46155;52.364;6.580;2022-07-25T13:41:33;100767.09;;;25.01;53.06
60307;BME280;46155;52.364;6.580;2022-07-25T13:43:58;100779.56;;;24.82;53.38
60307;BME280;46155;52.364;6.580;2022-07-25T13:46:24;100784.03;;;24.70;54.40
60307;BME280;46155;52.364;6.580;2022-07-25T13:48:49;100792.00;;;24.56;54.85
60307;BME280;46155;52.364;6.580;2022-07-25T13:51:15;100799.09;;;24.39;54.94
60307;BME280;46155;52.364;6.580;2022-07-25T13:53:40;100807.09;;;24.25;55.20
60307;BME280;46155;52.364;6.580;2022-07-25T13:56:06;100810.63;;;24.09;55.79
60307;BME280;46155;52.364;6.580;2022-07-25T13:58:31;100819.47;;;23.95;55.35
60307;BME280;46155;52.364;6.580;2022-07-25T14:00:57;100815.72;;;23.73;55.92
60307;BME280;46155;52.364;6.580;2022-07-25T14:03:22;100821.13;;;23.81;55.33
60307;BME280;46155;52.364;6.580;2022-07-25T14:05:47;100814.91;;;23.85;55.71
60307;BME280;46155;52.364;6.580;2022-07-25T14:08:14;100817.63;;;23.88;55.83
60307;BME280;46155;52.364;6.580;2022-07-25T14:10:39;100819.34;;;23.84;56.17
60307;BME280;46155;52.364;6.580;2022-07-25T14:13:04;100822.09;;;23.89;56.02
60307;BME280;46155;52.364;6.580;2022-07-25T14:15:30;100813.97;;;23.81;55.92
60307;BME280;46155;52.364;6.580;2022-07-25T14:17:56;100821.88;;;23.61;56.46
60307;BME280;46155;52.364;6.580;2022-07-25T14:20:21;100820.06;;;23.60;56.89
60307;BME280;46155;52.364;6.580;2022-07-25T14:22:46;100813.91;;;23.67;57.52
60307;BME280;46155;52.364;6.580;2022-07-25T14:25:12;100808.56;;;23.73;57.61
60307;BME280;46155;52.364;6.580;2022-07-25T14:27:37;100814.03;;;23.86;57.03
60307;BME280;46155;52.364;6.580;2022-07-25T14:30:07;100806.06;;;23.97;57.33
60307;BME280;46155;52.364;6.580;2022-07-25T14:32:34;100814.25;;;24.20;57.22
60307;BME280;46155;52.364;6.580;2022-07-25T14:34:59;100810.72;;;24.30;56.00
60307;BME280;46155;52.364;6.580;2022-07-25T14:37:26;100803.59;;;24.38;56.19
60307;BME280;46155;52.364;6.580;2022-07-25T14:39:52;100804.50;;;24.47;55.77
60307;BME280;46155;52.364;6.580;2022-07-25T14:42:18;100799.09;;;24.39;55.21
60307;BME280;46155;52.364;6.580;2022-07-25T14:44:44;100798.22;;;24.38;55.63
60307;BME280;46155;52.364;6.580;2022-07-25T14:47:09;100799.13;;;24.45;55.29
60307;BME280;46155;52.364;6.580;2022-07-25T14:49:34;100792.91;;;24.55;55.37
60307;BME280;46155;52.364;6.580;2022-07-25T14:51:59;100793.78;;;24.50;55.89
60307;BME280;46155;52.364;6.580;2022-07-25T14:54:25;100785.75;;;24.50;55.80
60307;BME280;46155;52.364;6.580;2022-07-25T14:56:55;100807.22;;;24.57;55.77
60307;BME280;46155;52.364;6.580;2022-07-25T14:59:22;100796.53;;;24.62;55.00
60307;BME280;46155;52.364;6.580;2022-07-25T15:01:48;100801.00;;;24.68;55.75
60307;BME280;46155;52.364;6.580;2022-07-25T15:04:13;100784.94;;;24.71;55.79
60307;BME280;46155;52.364;6.580;2022-07-25T15:06:39;100782.25;;;24.82;54.72
60307;BME280;46155;52.364;6.580;2022-07-25T15:09:04;100790.31;;;24.83;53.58
60307;BME280;46155;52.364;6.580;2022-07-25T15:11:29;100778.69;;;24.77;53.45
60307;BME280;46155;52.364;6.580;2022-07-25T15:13:55;100783.16;;;24.71;53.39
60307;BME280;46155;52.364;6.580;2022-07-25T15:16:22;100778.66;;;24.61;52.64
60307;BME280;46155;52.364;6.580;2022-07-25T15:18:47;100782.25;;;24.72;51.59
60307;BME280;46155;52.364;6.580;2022-07-25T15:21:13;100788.50;;;24.70;50.70
60307;BME280;46155;52.364;6.580;2022-07-25T15:23:38;100792.09;;;24.70;50.56
60307;BME280;46155;52.364;6.580;2022-07-25T15:26:04;100789.41;;;24.67;51.29
60307;BME280;46155;52.364;6.580;2022-07-25T15:28:31;100791.16;;;24.62;50.96
60307;BME280;46155;52.364;6.580;2022-07-25T15:30:56;100791.13;;;24.59;49.74
60307;BME280;46155;52.364;6.580;2022-07-25T15:33:22;100789.41;;;24.70;50.36
60307;BME280;46155;52.364;6.580;2022-07-25T15:35:47;100786.72;;;24.70;50.96
60307;BME280;46155;52.364;6.580;2022-07-25T15:38:14;100781.34;;;24.66;50.23
60307;BME280;46155;52.364;6.580;2022-07-25T15:40:41;100790.31;;;24.75;50.38
60307;BME280;46155;52.364;6.580;2022-07-25T15:43:06;100784.91;;;24.69;50.83
60307;BME280;46155;52.364;6.580;2022-07-25T15:45:36;100798.31;;;24.66;50.89
60307;BME280;46155;52.364;6.580;2022-07-25T15:48:02;100800.13;;;24.70;50.86
60307;BME280;46155;52.364;6.580;2022-07-25T15:50:29;100787.63;;;24.72;50.32
60307;BME280;46155;52.364;6.580;2022-07-25T15:52:54;100790.28;;;24.66;49.71
60307;BME280;46155;52.364;6.580;2022-07-25T15:55:19;100801.00;;;24.60;49.70